New Freedom, Pennsylvania
Current Conditions -  °F | °C
As of 9:53 PM on Thursday 18 Dec 2014 (Local Time) from KTHV Reporting Station
Overcast Overcast  
Wind Chill: 29°   Ceiling: 2900
Heat Index: 34°   Visibility: 10mi
Dew Point: 24°   Wind: 6mph
Humidity: 67%   Direction: 300°WNW
Pressure: 30.07"   Gusts: NA
Location:  39.74°N, 76.7°W
Report Text: KTHV 190253Z AUTO 30005KT 10SM OVC029 01/M04 A3007 RMK AO2 SLP190 T00111044 58000
Loading
Personal Weather Stations






























Interactive Weather Map New forecast layout! Learn more

10-Day Weather Forecast

Advertisements
Track Severe Weather on mobile